sensor_id;sensor_type;location;lat;lon;timestamp;P1;durP1;ratioP1;P2;durP2;ratioP2
68315;SDS011;55508;54.368;18.406;2023-05-07T00:00:42;12.48;;;7.25;;
68315;SDS011;55508;54.368;18.406;2023-05-07T00:03:10;7.45;;;6.55;;
68315;SDS011;55508;54.368;18.406;2023-05-07T00:05:38;8.35;;;7.22;;
68315;SDS011;55508;54.368;18.406;2023-05-07T00:08:06;11.25;;;7.55;;
68315;SDS011;55508;54.368;18.406;2023-05-07T00:10:33;7.68;;;6.50;;
68315;SDS011;55508;54.368;18.406;2023-05-07T00:13:00;9.70;;;6.85;;
68315;SDS011;55508;54.368;18.406;2023-05-07T00:15:27;7.68;;;6.43;;
68315;SDS011;55508;54.368;18.406;2023-05-07T00:17:55;12.02;;;6.85;;
68315;SDS011;55508;54.368;18.406;2023-05-07T00:20:22;7.70;;;6.50;;
68315;SDS011;55508;54.368;18.406;2023-05-07T00:22:50;11.63;;;6.63;;
68315;SDS011;55508;54.368;18.406;2023-05-07T00:25:17;8.13;;;5.82;;
68315;SDS011;55508;54.368;18.406;2023-05-07T00:27:46;9.15;;;6.25;;
68315;SDS011;55508;54.368;18.406;2023-05-07T00:30:14;8.93;;;5.80;;
68315;SDS011;55508;54.368;18.406;2023-05-07T00:32:41;9.00;;;5.47;;
68315;SDS011;55508;54.368;18.406;2023-05-07T00:35:08;5.65;;;5.15;;
68315;SDS011;55508;54.368;18.406;2023-05-07T00:37:36;9.02;;;6.28;;
68315;SDS011;55508;54.368;18.406;2023-05-07T00:40:04;8.10;;;5.80;;
68315;SDS011;55508;54.368;18.406;2023-05-07T00:42:34;8.57;;;7.18;;
68315;SDS011;55508;54.368;18.406;2023-05-07T00:45:01;9.73;;;7.35;;
68315;SDS011;55508;54.368;18.406;2023-05-07T00:47:30;9.65;;;6.00;;
68315;SDS011;55508;54.368;18.406;2023-05-07T00:49:57;7.38;;;6.13;;
68315;SDS011;55508;54.368;18.406;2023-05-07T00:52:25;10.95;;;6.07;;
68315;SDS011;55508;54.368;18.406;2023-05-07T00:54:53;7.55;;;6.50;;
68315;SDS011;55508;54.368;18.406;2023-05-07T00:57:20;11.50;;;8.25;;
68315;SDS011;55508;54.368;18.406;2023-05-07T00:59:48;12.43;;;9.05;;
68315;SDS011;55508;54.368;18.406;2023-05-07T01:02:16;7.63;;;6.93;;
68315;SDS011;55508;54.368;18.406;2023-05-07T01:04:43;13.07;;;7.20;;
68315;SDS011;55508;54.368;18.406;2023-05-07T01:07:11;10.65;;;9.27;;
68315;SDS011;55508;54.368;18.406;2023-05-07T01:09:38;11.40;;;9.52;;
68315;SDS011;55508;54.368;18.406;2023-05-07T01:12:06;11.93;;;8.40;;
68315;SDS011;55508;54.368;18.406;2023-05-07T01:14:34;18.88;;;13.93;;
68315;SDS011;55508;54.368;18.406;2023-05-07T01:17:02;22.00;;;15.27;;
68315;SDS011;55508;54.368;18.406;2023-05-07T01:19:29;27.13;;;16.02;;
68315;SDS011;55508;54.368;18.406;2023-05-07T01:22:01;23.67;;;14.90;;
68315;SDS011;55508;54.368;18.406;2023-05-07T01:24:37;21.60;;;14.20;;
68315;SDS011;55508;54.368;18.406;2023-05-07T01:27:06;16.88;;;13.45;;
68315;SDS011;55508;54.368;18.406;2023-05-07T01:29:37;20.73;;;15.10;;
68315;SDS011;55508;54.368;18.406;2023-05-07T01:32:04;31.77;;;17.75;;
68315;SDS011;55508;54.368;18.406;2023-05-07T01:34:32;37.75;;;19.83;;
68315;SDS011;55508;54.368;18.406;2023-05-07T01:37:00;31.20;;;19.73;;
68315;SDS011;55508;54.368;18.406;2023-05-07T01:39:28;30.33;;;19.17;;
68315;SDS011;55508;54.368;18.406;2023-05-07T01:41:56;34.58;;;18.92;;
68315;SDS011;55508;54.368;18.406;2023-05-07T01:44:24;39.15;;;19.45;;
68315;SDS011;55508;54.368;18.406;2023-05-07T01:46:52;29.92;;;17.27;;
68315;SDS011;55508;54.368;18.406;2023-05-07T01:49:20;23.42;;;15.23;;
68315;SDS011;55508;54.368;18.406;2023-05-07T01:51:48;23.73;;;14.88;;
68315;SDS011;55508;54.368;18.406;2023-05-07T01:54:15;27.30;;;16.05;;
68315;SDS011;55508;54.368;18.406;2023-05-07T01:56:45;23.88;;;14.85;;
68315;SDS011;55508;54.368;18.406;2023-05-07T01:59:14;18.05;;;12.95;;
68315;SDS011;55508;54.368;18.406;2023-05-07T02:01:42;21.02;;;14.02;;
68315;SDS011;55508;54.368;18.406;2023-05-07T02:04:10;19.27;;;11.60;;
68315;SDS011;55508;54.368;18.406;2023-05-07T02:06:38;18.98;;;12.00;;
68315;SDS011;55508;54.368;18.406;2023-05-07T02:09:07;20.33;;;12.05;;
68315;SDS011;55508;54.368;18.406;2023-05-07T02:11:38;20.45;;;12.63;;
68315;SDS011;55508;54.368;18.406;2023-05-07T02:14:05;14.65;;;10.65;;
68315;SDS011;55508;54.368;18.406;2023-05-07T02:16:32;16.55;;;10.07;;
68315;SDS011;55508;54.368;18.406;2023-05-07T02:19:00;13.80;;;8.85;;
68315;SDS011;55508;54.368;18.406;2023-05-07T02:21:27;15.52;;;8.82;;
68315;SDS011;55508;54.368;18.406;2023-05-07T02:23:56;11.88;;;10.63;;
68315;SDS011;55508;54.368;18.406;2023-05-07T02:26:24;13.43;;;9.82;;
68315;SDS011;55508;54.368;18.406;2023-05-07T02:28:52;15.43;;;10.32;;
68315;SDS011;55508;54.368;18.406;2023-05-07T02:31:20;15.20;;;10.02;;
68315;SDS011;55508;54.368;18.406;2023-05-07T02:33:48;14.48;;;9.57;;
68315;SDS011;55508;54.368;18.406;2023-05-07T02:36:15;18.77;;;10.85;;
68315;SDS011;55508;54.368;18.406;2023-05-07T02:38:52;14.02;;;9.70;;
68315;SDS011;55508;54.368;18.406;2023-05-07T02:41:19;10.13;;;8.98;;
68315;SDS011;55508;54.368;18.406;2023-05-07T02:43:47;12.35;;;8.85;;
68315;SDS011;55508;54.368;18.406;2023-05-07T02:46:14;14.60;;;8.57;;
68315;SDS011;55508;54.368;18.406;2023-05-07T02:48:46;10.48;;;8.57;;
68315;SDS011;55508;54.368;18.406;2023-05-07T02:51:14;12.80;;;9.43;;
68315;SDS011;55508;54.368;18.406;2023-05-07T02:53:42;12.10;;;9.82;;
68315;SDS011;55508;54.368;18.406;2023-05-07T02:56:09;34.25;;;19.75;;
68315;SDS011;55508;54.368;18.406;2023-05-07T02:58:37;27.00;;;16.85;;
68315;SDS011;55508;54.368;18.406;2023-05-07T03:01:07;29.00;;;17.85;;
68315;SDS011;55508;54.368;18.406;2023-05-07T03:03:50;28.15;;;17.67;;
68315;SDS011;55508;54.368;18.406;2023-05-07T03:06:17;23.13;;;13.57;;
68315;SDS011;55508;54.368;18.406;2023-05-07T03:08:44;19.58;;;13.18;;
68315;SDS011;55508;54.368;18.406;2023-05-07T03:11:11;15.63;;;11.23;;
68315;SDS011;55508;54.368;18.406;2023-05-07T03:13:39;12.85;;;10.07;;
68315;SDS011;55508;54.368;18.406;2023-05-07T03:16:06;12.50;;;9.25;;
68315;SDS011;55508;54.368;18.406;2023-05-07T03:18:34;13.15;;;9.63;;
68315;SDS011;55508;54.368;18.406;2023-05-07T03:21:01;13.18;;;9.43;;
68315;SDS011;55508;54.368;18.406;2023-05-07T03:23:29;11.95;;;9.40;;
68315;SDS011;55508;54.368;18.406;2023-05-07T03:25:56;13.00;;;10.18;;
68315;SDS011;55508;54.368;18.406;2023-05-07T03:28:24;16.00;;;10.38;;
68315;SDS011;55508;54.368;18.406;2023-05-07T03:30:57;16.50;;;9.68;;
68315;SDS011;55508;54.368;18.406;2023-05-07T03:33:24;10.63;;;8.77;;
68315;SDS011;55508;54.368;18.406;2023-05-07T03:35:52;9.30;;;8.35;;
68315;SDS011;55508;54.368;18.406;2023-05-07T03:38:22;10.68;;;7.97;;
68315;SDS011;55508;54.368;18.406;2023-05-07T03:40:50;11.75;;;8.27;;
68315;SDS011;55508;54.368;18.406;2023-05-07T03:43:17;9.00;;;7.50;;
68315;SDS011;55508;54.368;18.406;2023-05-07T03:45:49;9.73;;;7.65;;
68315;SDS011;55508;54.368;18.406;2023-05-07T03:48:22;11.02;;;7.82;;
68315;SDS011;55508;54.368;18.406;2023-05-07T03:50:51;10.45;;;8.23;;
68315;SDS011;55508;54.368;18.406;2023-05-07T03:53:19;15.55;;;9.43;;
68315;SDS011;55508;54.368;18.406;2023-05-07T03:55:47;19.25;;;11.40;;
68315;SDS011;55508;54.368;18.406;2023-05-07T03:58:14;14.68;;;11.20;;
68315;SDS011;55508;54.368;18.406;2023-05-07T04:00:42;16.08;;;10.88;;
68315;SDS011;55508;54.368;18.406;2023-05-07T04:03:22;15.05;;;10.68;;
68315;SDS011;55508;54.368;18.406;2023-05-07T04:05:49;16.60;;;10.80;;
68315;SDS011;55508;54.368;18.406;2023-05-07T04:08:17;14.15;;;10.07;;
68315;SDS011;55508;54.368;18.406;2023-05-07T04:10:55;15.88;;;10.20;;
68315;SDS011;55508;54.368;18.406;2023-05-07T04:13:25;14.80;;;10.57;;
68315;SDS011;55508;54.368;18.406;2023-05-07T04:15:54;18.55;;;10.68;;
68315;SDS011;55508;54.368;18.406;2023-05-07T04:18:22;16.95;;;10.13;;
68315;SDS011;55508;54.368;18.406;2023-05-07T04:20:50;12.05;;;9.77;;
68315;SDS011;55508;54.368;18.406;2023-05-07T04:23:17;17.88;;;10.60;;
68315;SDS011;55508;54.368;18.406;2023-05-07T04:25:44;13.40;;;10.75;;
68315;SDS011;55508;54.368;18.406;2023-05-07T04:28:20;14.88;;;10.73;;
68315;SDS011;55508;54.368;18.406;2023-05-07T04:30:49;11.80;;;10.60;;
68315;SDS011;55508;54.368;18.406;2023-05-07T04:33:17;13.25;;;9.98;;
68315;SDS011;55508;54.368;18.406;2023-05-07T04:35:46;13.07;;;10.35;;
68315;SDS011;55508;54.368;18.406;2023-05-07T04:38:14;11.27;;;9.73;;
68315;SDS011;55508;54.368;18.406;2023-05-07T04:40:41;13.82;;;9.85;;
68315;SDS011;55508;54.368;18.406;2023-05-07T04:43:12;12.40;;;9.80;;
68315;SDS011;55508;54.368;18.406;2023-05-07T04:45:45;15.43;;;10.43;;
68315;SDS011;55508;54.368;18.406;2023-05-07T04:48:12;13.60;;;9.50;;
68315;SDS011;55508;54.368;18.406;2023-05-07T04:50:41;13.60;;;9.45;;
68315;SDS011;55508;54.368;18.406;2023-05-07T04:53:10;13.48;;;9.82;;
68315;SDS011;55508;54.368;18.406;2023-05-07T04:55:37;15.18;;;9.80;;
68315;SDS011;55508;54.368;18.406;2023-05-07T04:58:05;16.08;;;9.90;;
68315;SDS011;55508;54.368;18.406;2023-05-07T05:00:34;13.35;;;8.77;;
68315;SDS011;55508;54.368;18.406;2023-05-07T05:03:04;12.25;;;9.38;;
68315;SDS011;55508;54.368;18.406;2023-05-07T05:05:36;9.02;;;7.95;;
68315;SDS011;55508;54.368;18.406;2023-05-07T05:08:03;10.98;;;9.13;;
68315;SDS011;55508;54.368;18.406;2023-05-07T05:10:31;10.20;;;8.05;;
68315;SDS011;55508;54.368;18.406;2023-05-07T05:12:59;10.77;;;9.20;;
68315;SDS011;55508;54.368;18.406;2023-05-07T05:15:27;20.20;;;9.40;;
68315;SDS011;55508;54.368;18.406;2023-05-07T05:17:56;8.73;;;7.63;;
68315;SDS011;55508;54.368;18.406;2023-05-07T05:20:24;10.70;;;7.85;;
68315;SDS011;55508;54.368;18.406;2023-05-07T05:22:51;13.57;;;7.45;;
68315;SDS011;55508;54.368;18.406;2023-05-07T05:25:18;7.20;;;6.30;;
68315;SDS011;55508;54.368;18.406;2023-05-07T05:27:45;5.65;;;5.10;;
68315;SDS011;55508;54.368;18.406;2023-05-07T05:30:13;6.68;;;5.47;;
68315;SDS011;55508;54.368;18.406;2023-05-07T05:32:44;6.33;;;5.83;;
68315;SDS011;55508;54.368;18.406;2023-05-07T05:35:11;8.70;;;6.28;;
68315;SDS011;55508;54.368;18.406;2023-05-07T05:37:40;6.90;;;6.15;;
68315;SDS011;55508;54.368;18.406;2023-05-07T05:40:08;8.52;;;5.90;;
68315;SDS011;55508;54.368;18.406;2023-05-07T05:42:36;9.50;;;5.88;;
68315;SDS011;55508;54.368;18.406;2023-05-07T05:45:04;5.93;;;4.90;;
68315;SDS011;55508;54.368;18.406;2023-05-07T05:47:33;6.25;;;5.45;;
68315;SDS011;55508;54.368;18.406;2023-05-07T05:50:00;8.73;;;6.07;;
68315;SDS011;55508;54.368;18.406;2023-05-07T05:52:28;12.00;;;5.80;;
68315;SDS011;55508;54.368;18.406;2023-05-07T05:54:56;8.73;;;6.35;;
68315;SDS011;55508;54.368;18.406;2023-05-07T05:57:25;7.82;;;5.55;;
68315;SDS011;55508;54.368;18.406;2023-05-07T05:59:55;5.32;;;4.82;;
68315;SDS011;55508;54.368;18.406;2023-05-07T06:02:23;5.03;;;4.13;;
68315;SDS011;55508;54.368;18.406;2023-05-07T06:04:51;4.43;;;3.78;;
68315;SDS011;55508;54.368;18.406;2023-05-07T06:07:21;4.70;;;3.40;;
68315;SDS011;55508;54.368;18.406;2023-05-07T06:09:49;5.40;;;3.40;;
68315;SDS011;55508;54.368;18.406;2023-05-07T06:12:18;4.55;;;2.60;;
68315;SDS011;55508;54.368;18.406;2023-05-07T06:14:46;3.03;;;2.60;;
68315;SDS011;55508;54.368;18.406;2023-05-07T06:17:16;6.45;;;2.70;;
68315;SDS011;55508;54.368;18.406;2023-05-07T06:19:48;4.63;;;2.60;;
68315;SDS011;55508;54.368;18.406;2023-05-07T06:22:17;2.95;;;2.70;;
68315;SDS011;55508;54.368;18.406;2023-05-07T06:24:45;3.58;;;2.53;;
68315;SDS011;55508;54.368;18.406;2023-05-07T06:27:13;4.32;;;2.58;;
68315;SDS011;55508;54.368;18.406;2023-05-07T06:29:40;2.75;;;2.22;;
68315;SDS011;55508;54.368;18.406;2023-05-07T06:32:13;2.65;;;2.10;;
68315;SDS011;55508;54.368;18.406;2023-05-07T06:34:42;4.63;;;2.08;;
68315;SDS011;55508;54.368;18.406;2023-05-07T06:37:10;2.92;;;1.98;;
68315;SDS011;55508;54.368;18.406;2023-05-07T06:39:48;3.03;;;2.45;;
68315;SDS011;55508;54.368;18.406;2023-05-07T06:42:15;2.22;;;2.00;;
68315;SDS011;55508;54.368;18.406;2023-05-07T06:44:46;2.50;;;2.30;;
68315;SDS011;55508;54.368;18.406;2023-05-07T06:47:15;3.38;;;2.42;;
68315;SDS011;55508;54.368;18.406;2023-05-07T06:49:46;4.10;;;2.55;;
68315;SDS011;55508;54.368;18.406;2023-05-07T06:52:16;3.33;;;2.42;;
68315;SDS011;55508;54.368;18.406;2023-05-07T06:54:44;3.85;;;2.47;;
68315;SDS011;55508;54.368;18.406;2023-05-07T06:57:14;5.25;;;2.67;;
68315;SDS011;55508;54.368;18.406;2023-05-07T06:59:41;3.08;;;2.72;;
68315;SDS011;55508;54.368;18.406;2023-05-07T07:02:09;2.75;;;2.55;;
68315;SDS011;55508;54.368;18.406;2023-05-07T07:04:36;2.00;;;1.90;;
68315;SDS011;55508;54.368;18.406;2023-05-07T07:09:35;2.47;;;2.25;;
68315;SDS011;55508;54.368;18.406;2023-05-07T07:12:04;2.40;;;2.20;;
68315;SDS011;55508;54.368;18.406;2023-05-07T07:14:33;5.35;;;2.40;;
68315;SDS011;55508;54.368;18.406;2023-05-07T07:17:00;24.70;;;2.83;;
68315;SDS011;55508;54.368;18.406;2023-05-07T07:19:28;3.83;;;1.73;;
68315;SDS011;55508;54.368;18.406;2023-05-07T07:21:56;4.55;;;1.80;;
68315;SDS011;55508;54.368;18.406;2023-05-07T07:24:23;3.33;;;1.98;;
68315;SDS011;55508;54.368;18.406;2023-05-07T07:26:55;2.30;;;1.30;;
68315;SDS011;55508;54.368;18.406;2023-05-07T07:29:24;1.75;;;1.60;;
68315;SDS011;55508;54.368;18.406;2023-05-07T07:31:53;1.98;;;1.77;;
68315;SDS011;55508;54.368;18.406;2023-05-07T07:34:21;2.28;;;2.08;;
68315;SDS011;55508;54.368;18.406;2023-05-07T07:36:49;3.08;;;2.10;;
68315;SDS011;55508;54.368;18.406;2023-05-07T07:39:18;2.10;;;1.90;;
68315;SDS011;55508;54.368;18.406;2023-05-07T07:41:48;2.30;;;1.90;;
68315;SDS011;55508;54.368;18.406;2023-05-07T07:44:16;6.20;;;2.15;;
68315;SDS011;55508;54.368;18.406;2023-05-07T07:46:48;2.55;;;1.50;;
68315;SDS011;55508;54.368;18.406;2023-05-07T07:49:18;3.22;;;1.80;;
68315;SDS011;55508;54.368;18.406;2023-05-07T07:51:46;1.98;;;1.77;;
68315;SDS011;55508;54.368;18.406;2023-05-07T07:54:15;3.10;;;1.95;;
68315;SDS011;55508;54.368;18.406;2023-05-07T07:56:42;1.85;;;1.75;;
68315;SDS011;55508;54.368;18.406;2023-05-07T07:59:11;1.70;;;1.60;;
68315;SDS011;55508;54.368;18.406;2023-05-07T08:01:40;2.42;;;1.98;;
68315;SDS011;55508;54.368;18.406;2023-05-07T08:04:08;2.10;;;1.95;;
68315;SDS011;55508;54.368;18.406;2023-05-07T08:06:39;3.10;;;1.77;;
68315;SDS011;55508;54.368;18.406;2023-05-07T08:09:08;3.67;;;1.88;;
68315;SDS011;55508;54.368;18.406;2023-05-07T08:11:37;2.47;;;2.05;;
68315;SDS011;55508;54.368;18.406;2023-05-07T08:14:04;1.85;;;1.75;;
68315;SDS011;55508;54.368;18.406;2023-05-07T08:16:32;2.85;;;2.20;;
68315;SDS011;55508;54.368;18.406;2023-05-07T08:19:00;11.40;;;2.20;;
68315;SDS011;55508;54.368;18.406;2023-05-07T08:21:27;2.35;;;1.92;;
68315;SDS011;55508;54.368;18.406;2023-05-07T08:23:54;2.05;;;1.85;;
68315;SDS011;55508;54.368;18.406;2023-05-07T08:26:22;3.60;;;2.10;;
68315;SDS011;55508;54.368;18.406;2023-05-07T08:28:49;1.90;;;1.58;;
68315;SDS011;55508;54.368;18.406;2023-05-07T08:31:16;2.85;;;1.90;;
68315;SDS011;55508;54.368;18.406;2023-05-07T08:33:44;3.80;;;1.42;;
68315;SDS011;55508;54.368;18.406;2023-05-07T08:36:11;3.67;;;1.70;;
68315;SDS011;55508;54.368;18.406;2023-05-07T08:38:39;3.35;;;2.03;;
68315;SDS011;55508;54.368;18.406;2023-05-07T08:41:12;3.70;;;1.58;;
68315;SDS011;55508;54.368;18.406;2023-05-07T08:43:41;2.42;;;1.67;;
68315;SDS011;55508;54.368;18.406;2023-05-07T08:46:09;2.80;;;1.80;;
68315;SDS011;55508;54.368;18.406;2023-05-07T08:48:41;2.83;;;2.15;;
68315;SDS011;55508;54.368;18.406;2023-05-07T08:51:13;3.83;;;2.23;;
68315;SDS011;55508;54.368;18.406;2023-05-07T08:53:42;3.08;;;2.10;;
68315;SDS011;55508;54.368;18.406;2023-05-07T08:56:12;2.10;;;1.90;;
68315;SDS011;55508;54.368;18.406;2023-05-07T08:58:42;2.90;;;1.83;;
68315;SDS011;55508;54.368;18.406;2023-05-07T09:01:12;3.08;;;2.15;;
68315;SDS011;55508;54.368;18.406;2023-05-07T09:03:44;2.10;;;2.00;;
68315;SDS011;55508;54.368;18.406;2023-05-07T09:06:13;2.28;;;1.83;;
68315;SDS011;55508;54.368;18.406;2023-05-07T09:08:44;2.25;;;1.92;;
68315;SDS011;55508;54.368;18.406;2023-05-07T09:11:23;1.73;;;1.60;;
68315;SDS011;55508;54.368;18.406;2023-05-07T09:13:54;2.05;;;1.83;;
68315;SDS011;55508;54.368;18.406;2023-05-07T09:16:31;2.72;;;1.70;;
68315;SDS011;55508;54.368;18.406;2023-05-07T09:19:00;3.22;;;1.80;;
68315;SDS011;55508;54.368;18.406;2023-05-07T09:21:27;6.88;;;1.67;;
68315;SDS011;55508;54.368;18.406;2023-05-07T09:23:57;2.70;;;1.40;;
68315;SDS011;55508;54.368;18.406;2023-05-07T09:26:33;3.65;;;1.40;;
68315;SDS011;55508;54.368;18.406;2023-05-07T09:29:03;1.55;;;1.42;;
68315;SDS011;55508;54.368;18.406;2023-05-07T09:31:31;2.70;;;1.65;;
68315;SDS011;55508;54.368;18.406;2023-05-07T09:33:58;2.45;;;1.92;;
68315;SDS011;55508;54.368;18.406;2023-05-07T09:36:31;2.25;;;1.60;;
68315;SDS011;55508;54.368;18.406;2023-05-07T09:38:59;32.38;;;2.75;;
68315;SDS011;55508;54.368;18.406;2023-05-07T09:41:29;5.65;;;1.40;;
68315;SDS011;55508;54.368;18.406;2023-05-07T09:46:43;4.63;;;1.67;;
68315;SDS011;55508;54.368;18.406;2023-05-07T09:49:20;2.78;;;1.70;;
68315;SDS011;55508;54.368;18.406;2023-05-07T09:51:55;2.17;;;1.50;;
68315;SDS011;55508;54.368;18.406;2023-05-07T09:54:25;1.75;;;1.40;;
68315;SDS011;55508;54.368;18.406;2023-05-07T09:56:55;13.88;;;2.03;;
68315;SDS011;55508;54.368;18.406;2023-05-07T09:59:26;3.15;;;1.40;;
68315;SDS011;55508;54.368;18.406;2023-05-07T10:01:59;2.50;;;1.38;;
68315;SDS011;55508;54.368;18.406;2023-05-07T10:04:32;40.38;;;3.17;;
68315;SDS011;55508;54.368;18.406;2023-05-07T10:06:59;1.42;;;1.25;;
68315;SDS011;55508;54.368;18.406;2023-05-07T10:09:28;2.95;;;1.58;;
68315;SDS011;55508;54.368;18.406;2023-05-07T10:11:56;2.45;;;1.65;;
68315;SDS011;55508;54.368;18.406;2023-05-07T10:14:24;3.50;;;1.67;;
68315;SDS011;55508;54.368;18.406;2023-05-07T10:16:53;15.65;;;2.38;;
68315;SDS011;55508;54.368;18.406;2023-05-07T10:19:21;2.92;;;1.48;;
68315;SDS011;55508;54.368;18.406;2023-05-07T10:21:55;8.43;;;1.67;;
68315;SDS011;55508;54.368;18.406;2023-05-07T10:24:29;1.65;;;1.45;;
68315;SDS011;55508;54.368;18.406;2023-05-07T10:27:10;1.50;;;1.40;;
68315;SDS011;55508;54.368;18.406;2023-05-07T10:34:59;3.40;;;1.48;;
68315;SDS011;55508;54.368;18.406;2023-05-07T10:37:29;1.70;;;1.60;;
68315;SDS011;55508;54.368;18.406;2023-05-07T10:39:57;1.42;;;1.33;;
68315;SDS011;55508;54.368;18.406;2023-05-07T10:42:26;1.58;;;1.48;;
68315;SDS011;55508;54.368;18.406;2023-05-07T10:44:55;2.47;;;1.45;;
68315;SDS011;55508;54.368;18.406;2023-05-07T10:47:27;5.10;;;1.25;;
68315;SDS011;55508;54.368;18.406;2023-05-07T10:52:35;2.13;;;1.33;;
68315;SDS011;55508;54.368;18.406;2023-05-07T11:01:12;3.88;;;1.23;;
68315;SDS011;55508;54.368;18.406;2023-05-07T11:04:27;1.63;;;1.40;;
68315;SDS011;55508;54.368;18.406;2023-05-07T11:15:12;3.13;;;1.58;;
68315;SDS011;55508;54.368;18.406;2023-05-07T11:21:02;3.47;;;1.55;;
68315;SDS011;55508;54.368;18.406;2023-05-07T11:26:46;2.20;;;1.40;;
68315;SDS011;55508;54.368;18.406;2023-05-07T11:29:19;5.72;;;1.40;;
68315;SDS011;55508;54.368;18.406;2023-05-07T11:31:54;2.97;;;1.45;;
68315;SDS011;55508;54.368;18.406;2023-05-07T11:34:25;3.75;;;1.60;;
68315;SDS011;55508;54.368;18.406;2023-05-07T11:36:55;2.55;;;1.27;;
68315;SDS011;55508;54.368;18.406;2023-05-07T11:39:35;1.92;;;1.35;;
68315;SDS011;55508;54.368;18.406;2023-05-07T11:42:02;1.58;;;1.00;;
68315;SDS011;55508;54.368;18.406;2023-05-07T11:44:42;1.80;;;1.70;;
68315;SDS011;55508;54.368;18.406;2023-05-07T11:47:19;1.25;;;1.10;;
68315;SDS011;55508;54.368;18.406;2023-05-07T11:49:50;2.83;;;1.20;;
68315;SDS011;55508;54.368;18.406;2023-05-07T11:52:19;2.60;;;2.00;;
68315;SDS011;55508;54.368;18.406;2023-05-07T11:54:51;2.70;;;1.25;;
68315;SDS011;55508;54.368;18.406;2023-05-07T11:57:19;1.58;;;1.48;;
68315;SDS011;55508;54.368;18.406;2023-05-07T11:59:46;1.60;;;1.50;;
68315;SDS011;55508;54.368;18.406;2023-05-07T12:02:17;3.08;;;1.40;;
68315;SDS011;55508;54.368;18.406;2023-05-07T12:04:44;2.05;;;1.67;;
68315;SDS011;55508;54.368;18.406;2023-05-07T12:07:12;2.53;;;1.60;;
68315;SDS011;55508;54.368;18.406;2023-05-07T12:09:43;2.00;;;1.70;;
68315;SDS011;55508;54.368;18.406;2023-05-07T12:12:11;1.58;;;1.45;;
68315;SDS011;55508;54.368;18.406;2023-05-07T12:14:41;1.70;;;1.60;;
68315;SDS011;55508;54.368;18.406;2023-05-07T12:17:09;3.60;;;1.80;;
68315;SDS011;55508;54.368;18.406;2023-05-07T12:19:38;3.28;;;1.60;;
68315;SDS011;55508;54.368;18.406;2023-05-07T12:22:07;1.60;;;1.50;;
68315;SDS011;55508;54.368;18.406;2023-05-07T12:24:45;3.15;;;1.77;;
68315;SDS011;55508;54.368;18.406;2023-05-07T12:27:17;1.52;;;1.42;;
68315;SDS011;55508;54.368;18.406;2023-05-07T12:29:48;1.35;;;1.25;;
68315;SDS011;55508;54.368;18.406;2023-05-07T12:32:16;1.92;;;1.60;;
68315;SDS011;55508;54.368;18.406;2023-05-07T12:34:44;3.00;;;1.83;;
68315;SDS011;55508;54.368;18.406;2023-05-07T12:37:12;2.13;;;1.48;;
68315;SDS011;55508;54.368;18.406;2023-05-07T12:39:49;4.30;;;1.33;;
68315;SDS011;55508;54.368;18.406;2023-05-07T12:42:18;4.35;;;1.75;;
68315;SDS011;55508;54.368;18.406;2023-05-07T12:44:50;3.00;;;1.65;;
68315;SDS011;55508;54.368;18.406;2023-05-07T12:47:17;3.33;;;1.60;;
68315;SDS011;55508;54.368;18.406;2023-05-07T12:49:44;2.92;;;1.60;;
68315;SDS011;55508;54.368;18.406;2023-05-07T12:52:12;1.67;;;1.50;;
68315;SDS011;55508;54.368;18.406;2023-05-07T12:54:40;5.60;;;1.70;;
68315;SDS011;55508;54.368;18.406;2023-05-07T12:57:08;3.83;;;1.77;;
68315;SDS011;55508;54.368;18.406;2023-05-07T12:59:36;2.58;;;1.45;;
68315;SDS011;55508;54.368;18.406;2023-05-07T13:02:05;2.78;;;1.38;;
68315;SDS011;55508;54.368;18.406;2023-05-07T13:04:34;2.78;;;1.10;;
68315;SDS011;55508;54.368;18.406;2023-05-07T13:07:01;3.22;;;1.63;;
68315;SDS011;55508;54.368;18.406;2023-05-07T13:09:29;1.73;;;1.63;;
68315;SDS011;55508;54.368;18.406;2023-05-07T13:11:57;2.75;;;1.50;;
68315;SDS011;55508;54.368;18.406;2023-05-07T13:14:28;4.70;;;1.67;;
68315;SDS011;55508;54.368;18.406;2023-05-07T13:16:55;3.42;;;1.70;;
68315;SDS011;55508;54.368;18.406;2023-05-07T13:19:22;3.50;;;1.58;;
68315;SDS011;55508;54.368;18.406;2023-05-07T13:21:49;3.42;;;1.30;;
68315;SDS011;55508;54.368;18.406;2023-05-07T13:24:16;2.38;;;1.60;;
68315;SDS011;55508;54.368;18.406;2023-05-07T13:26:43;4.03;;;2.47;;
68315;SDS011;55508;54.368;18.406;2023-05-07T13:29:11;2.40;;;1.60;;
68315;SDS011;55508;54.368;18.406;2023-05-07T13:31:38;2.15;;;1.40;;
68315;SDS011;55508;54.368;18.406;2023-05-07T13:34:09;3.30;;;1.60;;
68315;SDS011;55508;54.368;18.406;2023-05-07T13:36:37;2.42;;;1.33;;
68315;SDS011;55508;54.368;18.406;2023-05-07T13:39:06;3.55;;;1.83;;
68315;SDS011;55508;54.368;18.406;2023-05-07T13:41:33;2.15;;;1.95;;
68315;SDS011;55508;54.368;18.406;2023-05-07T13:44:00;1.88;;;1.15;;
68315;SDS011;55508;54.368;18.406;2023-05-07T13:46:27;2.97;;;1.88;;
68315;SDS011;55508;54.368;18.406;2023-05-07T13:48:56;2.03;;;1.80;;
68315;SDS011;55508;54.368;18.406;2023-05-07T13:51:23;4.43;;;1.95;;
68315;SDS011;55508;54.368;18.406;2023-05-07T13:53:51;2.97;;;2.00;;
68315;SDS011;55508;54.368;18.406;2023-05-07T13:56:19;1.90;;;1.70;;
68315;SDS011;55508;54.368;18.406;2023-05-07T13:58:47;2.70;;;1.77;;
68315;SDS011;55508;54.368;18.406;2023-05-07T14:01:25;2.20;;;2.00;;
68315;SDS011;55508;54.368;18.406;2023-05-07T14:03:53;2.90;;;2.00;;
68315;SDS011;55508;54.368;18.406;2023-05-07T14:06:20;5.72;;;2.60;;
68315;SDS011;55508;54.368;18.406;2023-05-07T14:08:48;3.17;;;2.20;;
68315;SDS011;55508;54.368;18.406;2023-05-07T14:11:16;2.90;;;1.88;;
68315;SDS011;55508;54.368;18.406;2023-05-07T14:13:43;2.58;;;1.92;;
68315;SDS011;55508;54.368;18.406;2023-05-07T14:16:10;3.90;;;1.83;;
68315;SDS011;55508;54.368;18.406;2023-05-07T14:18:37;3.03;;;2.10;;
68315;SDS011;55508;54.368;18.406;2023-05-07T14:21:05;5.55;;;2.17;;
68315;SDS011;55508;54.368;18.406;2023-05-07T14:23:36;2.45;;;2.25;;
68315;SDS011;55508;54.368;18.406;2023-05-07T14:26:03;4.03;;;2.45;;
68315;SDS011;55508;54.368;18.406;2023-05-07T14:28:30;5.28;;;2.47;;
68315;SDS011;55508;54.368;18.406;2023-05-07T14:30:58;2.35;;;2.15;;
68315;SDS011;55508;54.368;18.406;2023-05-07T14:33:25;4.65;;;2.50;;
68315;SDS011;55508;54.368;18.406;2023-05-07T14:35:52;2.92;;;2.47;;
68315;SDS011;55508;54.368;18.406;2023-05-07T14:38:19;5.05;;;2.53;;
68315;SDS011;55508;54.368;18.406;2023-05-07T14:40:47;2.88;;;2.60;;
68315;SDS011;55508;54.368;18.406;2023-05-07T14:43:14;4.28;;;2.47;;
68315;SDS011;55508;54.368;18.406;2023-05-07T14:45:42;2.97;;;2.70;;
68315;SDS011;55508;54.368;18.406;2023-05-07T14:48:09;5.45;;;2.45;;
68315;SDS011;55508;54.368;18.406;2023-05-07T14:50:42;3.45;;;2.67;;
68315;SDS011;55508;54.368;18.406;2023-05-07T14:53:09;8.32;;;3.00;;
68315;SDS011;55508;54.368;18.406;2023-05-07T14:55:36;4.50;;;3.05;;
68315;SDS011;55508;54.368;18.406;2023-05-07T14:58:03;5.20;;;3.40;;
68315;SDS011;55508;54.368;18.406;2023-05-07T15:00:30;3.50;;;3.20;;
68315;SDS011;55508;54.368;18.406;2023-05-07T15:03:06;5.72;;;3.30;;
68315;SDS011;55508;54.368;18.406;2023-05-07T15:05:37;3.60;;;2.92;;
68315;SDS011;55508;54.368;18.406;2023-05-07T15:08:04;4.15;;;3.60;;
68315;SDS011;55508;54.368;18.406;2023-05-07T15:10:34;4.57;;;3.30;;
68315;SDS011;55508;54.368;18.406;2023-05-07T15:13:08;5.85;;;3.70;;